Time;durP1;ratioP1;P1;durP2;ratioP2;P2;SDS_P1;SDS_P2;PMS_P1;PMS_P2;Temp;Humidity;BMP_temperature;BMP_pressure;BME280_temperature;BME280_humidity;BME280_pressure;Samples;Min_cycle;Max_cycle;Signal;HPM_P1;HPM_P2
2022/09/08 04:01:29;;;;;;;3.30;2.30;;;19.30;99.90;;;;;;5550050;23;20530;-74
2022/09/08 04:03:56;;;;;;;4.00;2.10;;;19.30;99.90;;;;;;4988980;28;21110;-75
2022/09/08 04:06:22;;;;;;;6.33;2.40;;;19.20;99.90;;;;;;4989429;28;20477;-74
2022/09/08 04:08:49;;;;;;;2.43;1.80;;;19.20;99.90;;;;;;4989098;28;20462;-74
2022/09/08 04:11:16;;;;;;;2.90;2.13;;;19.10;99.90;;;;;;4988726;28;20491;-74
2022/09/08 04:13:43;;;;;;;2.47;1.77;;;19.10;99.90;;;;;;4989030;28;20769;-73
2022/09/08 04:16:10;;;;;;;3.00;1.80;;;19.10;99.90;;;;;;4988839;28;20466;-73
2022/09/08 04:18:38;;;;;;;2.40;1.73;;;19.10;99.90;;;;;;4988403;28;20838;-75
2022/09/08 04:21:05;;;;;;;3.40;1.50;;;19.10;99.90;;;;;;4988568;28;20991;-75
2022/09/08 04:23:32;;;;;;;2.47;1.73;;;19.00;99.90;;;;;;4988832;28;20456;-74
2022/09/08 04:26:02;;;;;;;2.93;1.93;;;18.90;99.90;;;;;;4988083;28;20474;-74
2022/09/08 04:28:29;;;;;;;4.63;1.60;;;18.80;99.90;;;;;;4988723;28;20471;-74
2022/09/08 04:30:55;;;;;;;3.00;1.70;;;18.80;99.90;;;;;;4988706;28;20479;-74
2022/09/08 04:33:23;;;;;;;1.60;1.40;;;18.90;99.90;;;;;;4988616;28;20459;-74
2022/09/08 04:35:51;;;;;;;1.80;1.53;;;18.90;99.90;;;;;;4988366;28;20460;-74
2022/09/08 04:38:19;;;;;;;4.80;1.77;;;18.80;99.90;;;;;;4988644;28;20448;-74
2022/09/08 04:40:46;;;;;;;4.60;1.93;;;18.70;99.90;;;;;;4988514;28;21024;-75
2022/09/08 04:43:13;;;;;;;1.77;1.60;;;18.70;99.90;;;;;;4988982;28;20466;-74
2022/09/08 04:45:40;;;;;;;2.47;1.43;;;18.70;99.90;;;;;;4988710;28;21069;-74
2022/09/08 04:48:07;;;;;;;1.57;1.43;;;18.60;99.90;;;;;;4988638;28;20463;-76
2022/09/08 04:50:33;;;;;;;2.03;1.40;;;18.50;99.90;;;;;;4989105;28;20476;-73
2022/09/08 04:53:01;;;;;;;1.83;1.40;;;18.50;99.90;;;;;;4989262;28;20464;-76
2022/09/08 04:55:28;;;;;;;4.20;1.60;;;18.50;99.90;;;;;;4987893;28;20464;-76
2022/09/08 04:57:55;;;;;;;2.77;1.73;;;18.50;99.90;;;;;;4988705;28;20455;-76
2022/09/08 05:00:22;;;;;;;2.40;1.77;;;18.50;99.90;;;;;;4988909;28;20503;-76
2022/09/08 05:02:48;;;;;;;1.67;1.47;;;18.50;99.90;;;;;;4989261;28;20556;-76
2022/09/08 05:05:15;;;;;;;2.47;1.67;;;18.50;99.90;;;;;;4987848;28;20471;-76
2022/09/08 05:07:42;;;;;;;2.43;1.50;;;18.50;99.90;;;;;;4988152;28;20462;-76
2022/09/08 05:10:11;;;;;;;3.40;1.70;;;18.50;99.90;;;;;;4988090;28;20915;-76
2022/09/08 05:12:37;;;;;;;2.43;1.87;;;18.40;99.90;;;;;;4988015;28;20949;-75
2022/09/08 05:15:05;;;;;;;1.77;1.43;;;18.40;99.90;;;;;;4987551;28;21142;-76
2022/09/08 05:17:32;;;;;;;2.63;1.77;;;18.30;99.90;;;;;;4988447;28;20455;-75
2022/09/08 05:19:59;;;;;;;1.83;1.70;;;18.30;99.90;;;;;;4988147;28;20910;-76
2022/09/08 05:22:25;;;;;;;1.93;1.50;;;18.30;99.90;;;;;;4987779;28;20488;-76
2022/09/08 05:24:53;;;;;;;4.10;2.57;;;18.20;99.90;;;;;;4987211;28;20475;-76
2022/09/08 05:27:21;;;;;;;2.97;2.03;;;18.20;99.90;;;;;;4988084;28;20464;-77
2022/09/08 05:29:48;;;;;;;4.93;1.97;;;18.20;99.90;;;;;;4988087;28;20487;-75
2022/09/08 05:32:15;;;;;;;5.40;1.47;;;18.20;99.90;;;;;;4989003;28;21272;-76
2022/09/08 05:34:42;;;;;;;7.47;2.47;;;18.20;99.90;;;;;;4986982;28;20466;-76
2022/09/08 05:37:09;;;;;;;1.73;1.60;;;18.20;99.90;;;;;;4988291;28;20460;-77
2022/09/08 05:39:39;;;;;;;6.10;1.77;;;18.20;99.90;;;;;;4987386;28;20491;-77
2022/09/08 05:42:06;;;;;;;1.90;1.60;;;18.20;99.90;;;;;;4987125;28;20476;-78
2022/09/08 05:44:34;;;;;;;2.07;1.87;;;18.10;99.90;;;;;;4986844;28;20464;-77
2022/09/08 05:47:01;;;;;;;4.10;1.70;;;18.10;99.90;;;;;;4987989;28;20491;-77
2022/09/08 05:49:28;;;;;;;3.47;1.60;;;18.10;99.90;;;;;;4989303;28;20514;-77
2022/09/08 05:51:55;;;;;;;7.03;1.97;;;18.00;99.90;;;;;;4988160;28;20471;-77
2022/09/08 05:54:23;;;;;;;2.70;2.03;;;18.00;99.90;;;;;;4986684;28;20795;-77
2022/09/08 05:56:50;;;;;;;2.90;2.00;;;18.00;99.90;;;;;;4987365;28;20467;-77
2022/09/08 05:59:16;;;;;;;4.23;1.80;;;17.90;99.90;;;;;;4987092;28;20464;-77
2022/09/08 06:01:44;;;;;;;3.63;1.90;;;17.80;99.90;;;;;;4987288;28;20491;-77
2022/09/08 06:04:11;;;;;;;2.60;1.70;;;17.80;99.90;;;;;;4986134;28;20463;-77
2022/09/08 06:06:38;;;;;;;4.23;1.97;;;17.80;99.90;;;;;;4986763;28;20960;-77
2022/09/08 06:09:06;;;;;;;2.23;2.03;;;17.80;99.90;;;;;;4986264;28;20956;-77
2022/09/08 06:11:35;;;;;;;4.00;1.87;;;17.90;99.90;;;;;;4986802;28;20494;-77
2022/09/08 06:14:02;;;;;;;2.53;1.80;;;17.90;99.90;;;;;;4986216;28;20482;-77
2022/09/08 06:16:29;;;;;;;2.47;1.63;;;17.80;99.90;;;;;;4986597;28;20459;-77
2022/09/08 06:18:58;;;;;;;2.07;1.43;;;17.70;99.90;;;;;;4986635;28;20474;-77
2022/09/08 06:21:27;;;;;;;2.40;1.53;;;17.70;99.90;;;;;;4986279;28;21025;-77
2022/09/08 06:23:56;;;;;;;3.13;1.70;;;17.60;99.90;;;;;;4985686;28;20562;-77
2022/09/08 06:26:42;;;;;;;1.73;1.63;;;17.60;99.90;;;;;;4986456;28;20464;-77
2022/09/08 06:29:13;;;;;;;2.10;1.77;;;17.60;99.90;;;;;;4986594;28;20777;-77
2022/09/08 06:31:45;;;;;;;1.80;1.50;;;17.50;99.90;;;;;;4986187;28;20574;-77
2022/09/08 06:34:19;;;;;;;2.60;1.70;;;17.50;99.90;;;;;;4987638;28;20467;-77
2022/09/08 06:36:50;;;;;;;3.37;1.80;;;17.50;99.90;;;;;;4987630;28;20468;-77
2022/09/08 06:39:22;;;;;;;2.60;1.30;;;17.50;99.90;;;;;;4987913;28;20522;-77
2022/09/08 06:41:55;;;;;;;1.80;1.20;;;17.40;99.90;;;;;;4986748;28;20481;-78
2022/09/08 06:44:26;;;;;;;4.50;1.10;;;17.40;99.90;;;;;;4985418;28;20460;-77
2022/09/08 06:46:55;;;;;;;3.70;1.33;;;17.30;99.90;;;;;;4986194;28;20448;-77
2022/09/08 06:49:26;;;;;;;1.50;1.00;;;17.30;99.90;;;;;;4986176;28;20522;-77
2022/09/08 06:52:00;;;;;;;2.37;1.23;;;17.30;99.90;;;;;;4986301;28;20490;-77
2022/09/08 06:54:41;;;;;;;3.70;1.20;;;17.30;99.90;;;;;;4985508;28;20525;-77
2022/09/08 06:57:20;;;;;;;2.60;1.17;;;17.30;99.90;;;;;;4985949;28;20920;-77
2022/09/08 06:59:55;;;;;;;1.70;1.30;;;17.20;99.90;;;;;;4985968;28;20507;-77
2022/09/08 07:02:48;;;;;;;1.90;1.30;;;17.20;99.90;;;;;;4985547;28;20486;-77
2022/09/08 07:05:34;;;;;;;1.53;1.37;;;17.20;99.90;;;;;;4985370;28;20440;-77
2022/09/08 07:08:07;;;;;;;7.23;1.00;;;17.30;99.90;;;;;;4985848;28;20444;-78
2022/09/08 07:10:40;;;;;;;4.57;1.10;;;17.20;99.90;;;;;;4985894;28;20483;-77
2022/09/08 07:13:16;;;;;;;1.60;1.17;;;17.30;99.90;;;;;;4985556;28;20952;-77
2022/09/08 07:15:56;;;;;;;1.30;1.10;;;17.40;99.90;;;;;;4985228;28;20450;-77
2022/09/08 07:18:29;;;;;;;2.10;1.20;;;17.30;99.90;;;;;;4985455;28;20518;-78
2022/09/08 07:21:07;;;;;;;1.83;1.10;;;17.30;99.90;;;;;;4985525;28;20499;-77
2022/09/08 07:23:37;;;;;;;3.27;1.97;;;17.30;99.90;;;;;;4985908;28;20448;-77
2022/09/08 07:26:11;;;;;;;1.20;1.10;;;17.30;99.90;;;;;;4985262;28;20522;-77
2022/09/08 07:28:43;;;;;;;2.20;1.30;;;17.30;99.90;;;;;;4985952;28;20478;-77
2022/09/08 07:31:19;;;;;;;1.43;1.10;;;17.30;99.90;;;;;;4985436;28;21022;-77
2022/09/08 07:33:48;;;;;;;1.27;1.17;;;17.30;99.90;;;;;;4986181;28;20455;-77
2022/09/08 07:36:25;;;;;;;1.90;1.33;;;17.40;99.90;;;;;;4989325;28;20466;-77
2022/09/08 07:38:54;;;;;;;1.60;1.10;;;17.50;99.90;;;;;;4989359;28;21003;-77
2022/09/08 07:41:26;;;;;;;1.63;1.20;;;17.50;99.90;;;;;;4989522;28;20506;-77
2022/09/08 07:43:59;;;;;;;1.53;1.20;;;17.50;99.90;;;;;;4989683;28;20464;-77
2022/09/08 07:46:49;;;;;;;3.13;1.33;;;17.50;99.90;;;;;;4989412;28;20444;-77
2022/09/08 07:49:25;;;;;;;2.17;1.30;;;17.50;99.90;;;;;;4960389;28;20486;-77
2022/09/08 07:52:03;;;;;;;1.77;1.07;;;17.50;99.90;;;;;;4989214;28;20479;-77
2022/09/08 07:54:52;;;;;;;1.63;1.30;;;17.50;99.90;;;;;;4988917;28;20462;-77
2022/09/08 07:57:27;;;;;;;2.57;1.10;;;17.50;99.90;;;;;;4989356;28;20459;-77
2022/09/08 08:00:00;;;;;;;1.30;1.13;;;17.50;99.90;;;;;;4989069;28;21017;-77
2022/09/08 08:02:54;;;;;;;1.43;1.30;;;17.60;99.90;;;;;;4988939;28;20498;-77
2022/09/08 08:05:28;;;;;;;1.20;1.10;;;17.60;99.90;;;;;;4988531;28;20471;-78
2022/09/08 08:08:10;;;;;;;1.90;1.20;;;17.60;99.90;;;;;;4989258;28;20459;-77
2022/09/08 08:10:42;;;;;;;1.87;1.20;;;17.60;99.90;;;;;;4988710;28;20482;-77
2022/09/08 08:13:20;;;;;;;2.03;1.20;;;17.70;99.90;;;;;;4989047;28;20463;-77
2022/09/08 08:16:08;;;;;;;1.70;1.30;;;17.70;99.90;;;;;;4988905;28;20444;-77
2022/09/08 08:18:44;;;;;;;5.70;1.53;;;17.80;99.90;;;;;;4988826;28;20465;-77
2022/09/08 08:21:15;;;;;;;2.70;1.37;;;17.80;99.90;;;;;;4988646;28;20514;-77
2022/09/08 08:24:02;;;;;;;1.20;1.10;;;17.90;99.90;;;;;;4988453;28;20471;-77
2022/09/08 08:26:36;;;;;;;1.27;1.17;;;17.90;99.90;;;;;;4988312;28;20444;-77
2022/09/08 08:29:20;;;;;;;2.50;1.10;;;18.00;99.90;;;;;;4988661;28;20440;-77
2022/09/08 08:31:52;;;;;;;3.20;1.60;;;18.00;99.90;;;;;;4988541;28;20486;-77
2022/09/08 08:34:25;;;;;;;2.00;1.20;;;18.10;99.90;;;;;;4987781;28;20503;-77
2022/09/08 08:36:57;;;;;;;1.10;1.00;;;18.20;99.90;;;;;;4988599;28;20448;-78
2022/09/08 08:39:27;;;;;;;1.77;1.00;;;18.30;99.90;;;;;;4988794;28;20440;-78
2022/09/08 08:42:14;;;;;;;1.57;1.30;;;18.40;99.90;;;;;;4988013;28;21003;-78
2022/09/08 08:44:59;;;;;;;4.97;1.23;;;18.50;99.90;;;;;;4987746;28;20924;-78
2022/09/08 08:47:48;;;;;;;2.57;1.20;;;18.50;99.90;;;;;;4987403;28;20960;-78
2022/09/08 08:50:24;;;;;;;1.70;1.40;;;18.40;99.90;;;;;;4988381;28;20491;-76
2022/09/08 08:53:11;;;;;;;2.17;1.27;;;18.50;99.90;;;;;;4988071;28;20843;-77
2022/09/08 08:55:50;;;;;;;1.77;1.10;;;18.50;99.90;;;;;;4987660;28;20470;-78
2022/09/08 08:58:43;;;;;;;1.80;0.97;;;18.60;99.90;;;;;;4988435;28;20454;-78
2022/09/08 09:01:39;;;;;;;1.57;0.93;;;18.80;99.90;;;;;;4987961;28;20558;-78
2022/09/08 09:04:28;;;;;;;3.33;0.90;;;18.90;99.90;;;;;;4987717;28;20924;-78
2022/09/08 09:07:19;;;;;;;1.20;0.90;;;19.00;99.90;;;;;;4985600;28;20479;-78
2022/09/08 09:10:10;;;;;;;2.83;1.00;;;19.20;99.90;;;;;;4987819;28;20665;-78
2022/09/08 09:12:57;;;;;;;1.37;1.10;;;19.30;99.90;;;;;;4987481;28;20494;-78
2022/09/08 09:15:49;;;;;;;1.53;0.90;;;19.50;99.90;;;;;;4987444;28;20448;-79
2022/09/08 09:18:46;;;;;;;1.97;1.00;;;19.60;99.90;;;;;;4987548;28;21222;-78
2022/09/08 09:21:21;;;;;;;2.30;1.13;;;19.70;99.90;;;;;;4987926;28;20514;-78
2022/09/08 09:23:59;;;;;;;1.27;1.07;;;19.90;99.90;;;;;;4987531;28;21230;-78
2022/09/08 09:26:30;;;;;;;1.97;0.90;;;19.90;99.90;;;;;;4987403;28;20809;-78
2022/09/08 09:29:10;;;;;;;1.80;0.93;;;19.80;99.90;;;;;;4987088;28;20459;-78
2022/09/08 09:32:09;;;;;;;1.40;1.10;;;19.60;99.90;;;;;;4987462;28;20491;-78
2022/09/08 09:35:02;;;;;;;3.43;1.20;;;19.60;99.90;;;;;;4987081;28;20462;-78
2022/09/08 09:38:10;;;;;;;2.00;1.07;;;19.60;99.90;;;;;;4987413;28;20440;-78
2022/09/08 09:41:14;;;;;;;1.20;0.97;;;19.60;99.90;;;;;;4987430;28;20530;-78
2022/09/08 09:43:53;;;;;;;0.90;0.77;;;19.70;99.90;;;;;;4956463;28;20997;-78
2022/09/08 09:47:15;;;;;;;3.10;1.10;;;19.90;99.90;;;;;;4986985;28;20440;-78
2022/09/08 09:50:17;;;;;;;0.80;0.70;;;20.10;99.90;;;;;;4926295;29;20450;-78
2022/09/08 09:52:56;;;;;;;2.47;1.10;;;20.20;99.90;;;;;;4987221;28;20451;-78
2022/09/08 09:55:52;;;;;;;1.03;0.80;;;20.40;99.90;;;;;;4986636;28;20482;-78
2022/09/08 09:58:55;;;;;;;1.43;0.73;;;20.50;99.90;;;;;;4986428;28;20455;-78
2022/09/08 10:01:50;;;;;;;0.90;0.80;;;20.60;99.90;;;;;;4986601;28;20586;-78
2022/09/08 10:05:13;;;;;;;2.03;1.00;;;20.70;99.90;;;;;;4986184;28;20467;-77
2022/09/08 10:08:17;;;;;;;1.30;0.80;;;20.90;99.90;;;;;;4926177;29;21016;-77
2022/09/08 10:11:05;;;;;;;1.30;1.00;;;21.00;99.90;;;;;;4961109;28;20472;-77
2022/09/08 10:14:07;;;;;;;1.20;0.80;;;21.00;99.90;;;;;;4986423;28;21074;-77
2022/09/08 10:17:08;;;;;;;2.13;1.00;;;21.00;99.90;;;;;;4986874;28;20971;-78
2022/09/08 10:20:23;;;;;;;1.43;1.00;;;20.90;99.90;;;;;;4984117;28;20537;-78
2022/09/08 10:23:17;;;;;;;1.97;1.10;;;20.90;99.90;;;;;;4986987;28;20462;-78
2022/09/08 10:26:16;;;;;;;1.10;0.90;;;20.90;99.90;;;;;;4986456;28;20451;-78
2022/09/08 10:29:03;;;;;;;2.10;0.80;;;20.90;99.90;;;;;;4986493;28;20468;-77
2022/09/08 10:32:12;;;;;;;1.83;0.90;;;21.00;99.90;;;;;;4985997;28;20482;-77
2022/09/08 10:35:14;;;;;;;2.43;1.10;;;21.20;99.90;;;;;;4968811;28;20480;-77
2022/09/08 10:38:17;;;;;;;2.03;1.13;;;21.40;99.90;;;;;;4986068;28;20470;-77
2022/09/08 10:40:57;;;;;;;1.63;1.00;;;21.50;99.90;;;;;;4986302;28;20499;-77
2022/09/08 10:43:50;;;;;;;2.07;1.13;;;21.30;99.90;;;;;;4986330;28;20491;-77
2022/09/08 10:46:49;;;;;;;2.13;1.07;;;21.30;99.90;;;;;;4983167;28;20503;-76
2022/09/08 10:49:51;;;;;;;1.30;0.83;;;21.40;99.90;;;;;;4985893;28;20834;-77
2022/09/08 10:52:27;;;;;;;1.10;0.90;;;21.60;99.90;;;;;;4953702;28;20570;-78
2022/09/08 10:55:27;;;;;;;1.43;0.90;;;21.80;99.90;;;;;;4985793;28;20466;-77
2022/09/08 10:58:18;;;;;;;6.17;1.10;;;21.70;99.90;;;;;;4982367;28;20858;-77
2022/09/08 11:01:00;;;;;;;1.83;0.90;;;21.70;99.90;;;;;;4985903;28;20860;-78
2022/09/08 11:03:49;;;;;;;2.40;1.10;;;21.60;99.90;;;;;;4985899;28;20448;-78
2022/09/08 11:06:28;;;;;;;1.10;1.00;;;21.40;99.90;;;;;;4985500;28;20459;-78
2022/09/08 11:09:11;;;;;;;3.80;1.10;;;21.40;99.90;;;;;;4984993;28;20928;-77
2022/09/08 11:12:18;;;;;;;3.43;1.00;;;21.30;99.90;;;;;;4985941;28;20490;-77
2022/09/08 11:15:36;;;;;;;1.10;0.83;;;21.30;99.90;;;;;;4972545;28;20828;-78
2022/09/08 11:18:21;;;;;;;1.17;0.80;;;21.50;99.90;;;;;;4985781;28;20459;-78
2022/09/08 11:20:52;;;;;;;1.33;0.90;;;21.70;99.90;;;;;;4985799;28;20995;-77
2022/09/08 11:23:31;;;;;;;1.20;1.00;;;21.70;99.90;;;;;;4985827;28;20466;-78
2022/09/08 11:26:17;;;;;;;1.13;0.93;;;21.80;99.90;;;;;;4985598;28;20459;-77
2022/09/08 11:28:57;;;;;;;3.93;1.17;;;21.70;99.90;;;;;;4985755;28;20456;-76
2022/09/08 11:31:34;;;;;;;1.40;0.90;;;21.60;99.90;;;;;;4985883;28;20499;-76
2022/09/08 11:34:58;;;;;;;3.00;1.33;;;21.50;99.90;;;;;;4985116;28;20448;-77
2022/09/08 11:37:52;;;;;;;1.40;0.97;;;21.40;99.90;;;;;;4924998;29;20454;-78
2022/09/08 11:40:37;;;;;;;2.50;1.10;;;21.30;99.90;;;;;;4985322;28;20546;-78
2022/09/08 11:43:24;;;;;;;2.53;1.20;;;21.10;99.90;;;;;;4985405;28;20494;-77
2022/09/08 11:46:04;;;;;;;1.77;1.20;;;21.10;99.90;;;;;;4985489;28;20467;-77
2022/09/08 11:48:49;;;;;;;3.67;1.10;;;21.10;99.90;;;;;;4985378;28;20456;-77
2022/09/08 11:51:36;;;;;;;2.00;0.90;;;21.10;99.90;;;;;;4985474;28;20486;-77
2022/09/08 11:54:38;;;;;;;2.60;1.30;;;21.20;99.90;;;;;;4984664;28;20454;-77
2022/09/08 11:57:25;;;;;;;4.63;1.43;;;21.20;99.90;;;;;;4989166;28;20558;-78
2022/09/08 12:00:19;;;;;;;4.50;1.20;;;21.20;99.90;;;;;;4988836;28;20459;-78
2022/09/08 12:03:39;;;;;;;8.10;1.57;;;21.20;99.90;;;;;;4988343;28;20680;-74
2022/09/08 12:06:43;;;;;;;2.47;1.30;;;21.30;99.90;;;;;;4986693;28;20482;-78
2022/09/08 12:09:28;;;;;;;2.20;0.90;;;21.50;99.90;;;;;;4985254;28;20452;-78
2022/09/08 12:12:24;;;;;;;4.07;1.23;;;21.50;99.90;;;;;;4985275;28;20990;-77
2022/09/08 12:15:03;;;;;;;1.67;0.90;;;21.50;99.90;;;;;;4984947;28;20451;-78
2022/09/08 12:17:45;;;;;;;3.43;1.20;;;21.60;99.90;;;;;;4985717;28;20974;-77
2022/09/08 12:20:30;;;;;;;3.73;0.97;;;21.70;99.90;;;;;;4986566;28;20478;-77
2022/09/08 12:23:15;;;;;;;1.87;1.10;;;21.80;99.90;;;;;;4989144;28;20498;-77
2022/09/08 12:25:56;;;;;;;2.60;1.20;;;22.00;99.90;;;;;;4988434;28;20966;-77
2022/09/08 12:28:49;;;;;;;1.90;1.03;;;22.10;99.90;;;;;;4988846;28;20448;-77
2022/09/08 12:31:32;;;;;;;2.23;0.90;;;22.30;99.90;;;;;;4989028;28;20472;-77
2022/09/08 12:34:23;;;;;;;2.70;1.20;;;22.40;99.90;;;;;;4987908;28;20446;-77
2022/09/08 12:36:53;;;;;;;2.67;1.07;;;22.70;99.90;;;;;;4989111;28;20862;-76
2022/09/08 12:39:53;;;;;;;1.67;1.10;;;22.80;99.90;;;;;;4988706;28;20455;-76
2022/09/08 12:42:52;;;;;;;5.50;1.03;;;22.90;99.90;;;;;;4987966;28;20503;-78
2022/09/08 12:45:27;;;;;;;3.53;1.40;;;22.90;99.90;;;;;;4966918;28;20847;-77
2022/09/08 12:48:04;;;;;;;7.23;1.50;;;22.70;99.90;;;;;;4988588;28;20451;-78
2022/09/08 12:50:45;;;;;;;5.13;1.20;;;22.60;99.90;;;;;;4988755;28;20450;-77
2022/09/08 12:53:50;;;;;;;1.53;0.93;;;22.70;99.90;;;;;;4988332;28;20514;-77
2022/09/08 12:56:27;;;;;;;3.03;1.13;;;22.70;99.90;;;;;;4987691;28;20979;-77
2022/09/08 12:59:11;;;;;;;1.50;1.00;;;22.70;99.90;;;;;;4988307;28;20435;-77
2022/09/08 13:01:42;;;;;;;2.30;1.07;;;22.80;99.90;;;;;;4988072;28;21425;-77
2022/09/08 13:04:31;;;;;;;3.03;1.20;;;22.80;99.90;;;;;;4987498;28;20841;-78
2022/09/08 13:07:09;;;;;;;5.43;1.20;;;22.70;99.90;;;;;;4987958;28;20917;-78
2022/09/08 13:09:50;;;;;;;1.70;1.10;;;22.60;99.90;;;;;;4988213;28;20972;-77
2022/09/08 13:12:42;;;;;;;4.30;1.20;;;22.50;99.90;;;;;;4987902;28;20490;-78
2022/09/08 13:15:24;;;;;;;3.67;1.07;;;22.50;99.90;;;;;;4987468;28;20464;-77
2022/09/08 13:18:04;;;;;;;7.30;1.50;;;22.60;99.90;;;;;;4988018;28;20463;-76
2022/09/08 13:20:38;;;;;;;11.57;1.47;;;22.70;99.90;;;;;;4987621;28;20963;-76
2022/09/08 13:23:26;;;;;;;4.67;1.60;;;22.70;99.90;;;;;;4987612;28;20479;-76
2022/09/08 13:26:03;;;;;;;3.83;1.43;;;22.80;99.90;;;;;;4987445;28;20783;-76
2022/09/08 13:28:48;;;;;;;3.47;1.10;;;22.70;99.90;;;;;;4987145;28;20463;-76
2022/09/08 13:31:27;;;;;;;5.73;1.20;;;22.70;99.90;;;;;;4987476;28;20490;-77
2022/09/08 13:34:26;;;;;;;7.00;1.40;;;22.60;99.90;;;;;;4988056;28;20466;-76
2022/09/08 13:37:13;;;;;;;2.17;1.40;;;22.60;99.90;;;;;;4987466;28;20639;-76
2022/09/08 13:40:02;;;;;;;2.83;1.00;;;22.80;99.90;;;;;;4987512;28;20458;-77
2022/09/08 13:42:58;;;;;;;2.40;1.10;;;23.00;99.90;;;;;;4987450;28;20503;-77
2022/09/08 13:45:41;;;;;;;2.97;1.20;;;23.00;99.90;;;;;;4973861;28;20483;-77
2022/09/08 13:48:31;;;;;;;3.10;1.50;;;22.90;99.90;;;;;;4987023;28;20459;-77
2022/09/08 13:51:33;;;;;;;8.70;1.50;;;22.80;99.90;;;;;;4986878;28;20475;-77
2022/09/08 13:54:49;;;;;;;3.00;1.20;;;22.90;99.90;;;;;;4976271;28;20959;-77
2022/09/08 13:57:42;;;;;;;2.57;1.20;;;23.10;99.90;;;;;;4926474;29;20541;-77
2022/09/08 14:00:11;;;;;;;2.60;1.40;;;23.30;99.90;;;;;;4987032;28;20450;-77
2022/09/08 14:02:49;;;;;;;4.13;1.20;;;23.40;99.90;;;;;;4986529;28;20534;-77
2022/09/08 14:05:23;;;;;;;5.73;1.10;;;23.40;99.90;;;;;;4986285;28;20850;-77
2022/09/08 14:07:55;;;;;;;2.60;0.90;;;23.60;99.90;;;;;;4986769;28;20462;-77
2022/09/08 14:10:42;;;;;;;2.50;1.00;;;23.70;99.90;;;;;;4986547;28;20928;-77
2022/09/08 14:13:27;;;;;;;1.23;0.80;;;23.70;99.90;;;;;;4986605;28;20955;-77
2022/09/08 14:16:04;;;;;;;1.13;0.90;;;23.70;99.90;;;;;;4986649;28;20455;-76
2022/09/08 14:18:52;;;;;;;2.10;0.90;;;23.70;99.90;;;;;;4986447;28;20450;-76
2022/09/08 14:21:28;;;;;;;1.67;1.00;;;23.70;99.90;;;;;;4986476;28;20483;-76
2022/09/08 14:24:19;;;;;;;1.73;1.00;;;23.80;99.90;;;;;;4986636;28;20458;-76
2022/09/08 14:26:52;;;;;;;1.80;1.07;;;23.90;99.90;;;;;;4986650;28;20447;-76
2022/09/08 14:29:46;;;;;;;4.50;1.00;;;24.00;99.90;;;;;;4986594;28;20460;-76
2022/09/08 14:32:28;;;;;;;5.87;1.10;;;23.90;99.90;;;;;;4986151;28;20824;-76
2022/09/08 14:35:37;;;;;;;4.30;1.00;;;23.80;99.90;;;;;;4985887;28;20450;-76
2022/09/08 14:38:26;;;;;;;2.83;1.00;;;23.70;99.90;;;;;;4984489;28;20471;-77
2022/09/08 14:41:05;;;;;;;1.80;0.80;;;23.60;99.90;;;;;;4987283;28;20574;-77
2022/09/08 14:44:01;;;;;;;3.70;1.43;;;23.70;99.90;;;;;;4985126;28;20479;-77
2022/09/08 14:46:42;;;;;;;2.23;0.90;;;23.70;99.90;;;;;;4986547;28;20463;-77
2022/09/08 14:49:26;;;;;;;2.20;1.30;;;23.80;99.90;;;;;;4986616;28;20452;-77
2022/09/08 14:52:06;;;;;;;2.23;1.00;;;23.80;99.90;;;;;;4987585;28;20491;-78
2022/09/08 14:54:47;;;;;;;1.57;1.00;;;23.70;99.90;;;;;;4989320;28;20455;-79
2022/09/08 14:57:24;;;;;;;1.80;1.10;;;23.60;99.90;;;;;;4989784;28;20844;-79
2022/09/08 15:00:14;;;;;;;1.83;1.10;;;23.60;99.90;;;;;;4987002;28;20451;-77
2022/09/08 15:02:49;;;;;;;5.07;1.57;;;23.50;99.90;;;;;;4986214;28;20523;-77
2022/09/08 15:05:18;;;;;;;4.83;1.40;;;23.40;99.90;;;;;;4988413;28;20558;-77
2022/09/08 15:07:50;;;;;;;4.17;1.40;;;23.40;99.90;;;;;;4985862;28;20955;-77
2022/09/08 15:10:22;;;;;;;4.07;1.50;;;23.30;99.90;;;;;;4985886;28;20470;-80
2022/09/08 15:13:04;;;;;;;3.97;1.10;;;23.30;99.90;;;;;;4985993;28;20487;-76
2022/09/08 15:15:34;;;;;;;5.10;1.37;;;23.50;99.90;;;;;;4985772;28;20847;-79
2022/09/08 15:18:33;;;;;;;3.27;1.37;;;23.70;99.90;;;;;;4985758;28;20558;-75
2022/09/08 15:21:19;;;;;;;2.40;1.07;;;23.90;99.90;;;;;;4986377;28;20480;-78
2022/09/08 15:23:49;;;;;;;2.90;1.10;;;24.10;99.90;;;;;;4986151;28;20495;-77
2022/09/08 15:26:25;;;;;;;3.30;1.37;;;24.20;99.90;;;;;;4986055;28;20469;-78
2022/09/08 15:29:10;;;;;;;3.27;1.37;;;24.20;99.90;;;;;;4986529;28;20507;-78
2022/09/08 15:31:44;;;;;;;4.67;1.00;;;24.20;99.90;;;;;;4985631;28;20479;-76
2022/09/08 15:34:20;;;;;;;2.40;1.20;;;24.20;99.90;;;;;;4985647;28;20459;-74
2022/09/08 15:37:01;;;;;;;2.30;1.03;;;24.20;99.90;;;;;;4986448;28;20466;-79
2022/09/08 15:39:40;;;;;;;3.10;1.00;;;24.40;99.90;;;;;;4986765;28;20474;-78
2022/09/08 15:42:22;;;;;;;2.50;0.90;;;24.60;99.90;;;;;;4985866;28;20495;-77
2022/09/08 15:45:00;;;;;;;2.70;1.17;;;24.80;99.90;;;;;;4989050;28;20494;-79
2022/09/08 15:47:34;;;;;;;1.80;1.30;;;25.00;99.90;;;;;;4989495;28;21026;-77
2022/09/08 15:50:11;;;;;;;1.37;0.80;;;24.90;99.90;;;;;;4987357;28;20444;-78
2022/09/08 15:53:17;;;;;;;2.03;0.80;;;25.00;99.90;;;;;;4985182;28;20900;-78
2022/09/08 15:56:07;;;;;;;2.83;1.20;;;24.90;99.90;;;;;;4957427;28;20751;-85
2022/09/08 15:58:35;;;;;;;2.17;1.20;;;25.00;99.90;;;;;;4989591;28;20444;-77
2022/09/08 16:01:11;;;;;;;3.73;1.33;;;25.00;99.90;;;;;;4989401;28;20483;-77
2022/09/08 16:03:46;;;;;;;5.17;1.50;;;25.00;99.90;;;;;;4989506;28;21035;-77
2022/09/08 16:06:24;;;;;;;3.50;1.30;;;25.00;99.90;;;;;;4988605;28;20908;-77
2022/09/08 16:09:03;;;;;;;2.30;1.03;;;25.00;99.90;;;;;;4990086;28;21079;-75
2022/09/08 16:11:40;;;;;;;8.10;1.20;;;24.90;99.90;;;;;;4992914;28;20483;-78
2022/09/08 16:14:16;;;;;;;3.00;1.00;;;24.80;99.90;;;;;;4989690;28;20454;-75
2022/09/08 16:17:01;;;;;;;3.47;1.60;;;24.60;99.90;;;;;;4990194;28;20947;-77
2022/09/08 16:19:31;;;;;;;2.17;1.10;;;24.40;99.90;;;;;;4987938;28;20451;-77
2022/09/08 16:22:03;;;;;;;2.53;1.10;;;24.30;99.90;;;;;;4986485;28;20800;-77
2022/09/08 16:24:41;;;;;;;1.93;1.10;;;24.10;99.90;;;;;;4990493;28;20510;-78
2022/09/08 16:27:30;;;;;;;2.93;1.13;;;23.90;99.90;;;;;;4991746;28;20467;-68
2022/09/08 16:30:03;;;;;;;1.83;1.00;;;23.70;99.90;;;;;;4990538;28;20539;-79
2022/09/08 16:32:51;;;;;;;2.50;1.00;;;23.40;99.90;;;;;;4991165;28;21004;-76
2022/09/08 16:35:34;;;;;;;1.50;1.10;;;23.20;99.90;;;;;;4990755;28;20439;-76
2022/09/08 16:38:22;;;;;;;4.90;1.30;;;23.00;99.90;;;;;;4991190;28;20455;-77
2022/09/08 16:40:52;;;;;;;2.83;1.00;;;22.80;99.90;;;;;;4991738;28;20833;-79
2022/09/08 16:43:23;;;;;;;4.40;1.10;;;22.70;99.90;;;;;;4991176;28;20499;-79
2022/09/08 16:46:05;;;;;;;1.70;1.20;;;22.70;99.90;;;;;;4988747;28;20464;-77
2022/09/08 16:48:44;;;;;;;7.00;1.13;;;22.60;99.90;;;;;;4988806;28;20518;-77
2022/09/08 16:51:21;;;;;;;3.20;1.40;;;22.50;99.90;;;;;;4990023;28;20472;-78
2022/09/08 16:53:58;;;;;;;2.13;1.00;;;22.50;99.90;;;;;;4989986;28;20533;-76
2022/09/08 16:56:36;;;;;;;2.10;1.10;;;22.40;99.90;;;;;;4990580;28;20448;-79
2022/09/08 16:59:25;;;;;;;3.30;1.30;;;22.30;99.90;;;;;;4990400;28;20448;-75
2022/09/08 17:02:02;;;;;;;2.63;1.10;;;22.20;99.90;;;;;;4989091;28;20880;-67
2022/09/08 17:04:42;;;;;;;2.90;1.10;;;22.10;99.90;;;;;;4987428;28;20495;-67
2022/09/08 17:07:10;;;;;;;2.90;1.20;;;22.00;99.90;;;;;;4987629;28;20444;-67
2022/09/08 17:10:02;;;;;;;6.10;1.60;;;21.90;99.90;;;;;;4987848;28;20503;-68
2022/09/08 17:12:34;;;;;;;3.73;1.60;;;21.90;99.90;;;;;;4987970;28;20471;-68
2022/09/08 17:16:08;;;;;;;3.37;1.67;;;21.80;99.90;;;;;;4987629;28;20482;-68
2022/09/08 17:18:48;;;;;;;4.87;1.63;;;21.90;99.90;;;;;;4988374;28;20465;-67
2022/09/08 17:21:38;;;;;;;4.43;1.80;;;21.80;99.90;;;;;;4988386;28;20478;-65
2022/09/08 17:24:16;;;;;;;4.67;1.20;;;21.70;99.90;;;;;;4987897;28;20479;-69
2022/09/08 17:27:13;;;;;;;7.23;1.97;;;21.70;99.90;;;;;;4988319;28;20530;-67
2022/09/08 17:30:08;;;;;;;5.30;1.53;;;21.60;99.90;;;;;;4988302;28;20460;-68
2022/09/08 17:32:59;;;;;;;6.80;1.77;;;21.60;99.90;;;;;;4953195;28;20501;-67
2022/09/08 17:35:44;;;;;;;3.33;1.50;;;21.50;99.90;;;;;;4987072;28;20459;-67
2022/09/08 17:38:24;;;;;;;2.07;1.30;;;21.40;99.90;;;;;;4987967;28;20443;-67
2022/09/08 17:40:55;;;;;;;6.53;1.73;;;21.10;99.90;;;;;;4987820;28;20476;-66
2022/09/08 17:43:28;;;;;;;5.43;1.43;;;20.90;99.90;;;;;;4987467;28;20992;-67
2022/09/08 17:46:03;;;;;;;4.10;1.40;;;20.80;99.90;;;;;;4987082;28;20745;-68
2022/09/08 17:48:38;;;;;;;2.13;1.20;;;20.70;99.90;;;;;;4987826;28;20455;-67
2022/09/08 17:51:19;;;;;;;4.70;1.50;;;20.60;99.90;;;;;;4987115;28;20940;-67
2022/09/08 17:53:52;;;;;;;7.17;1.27;;;20.60;99.90;;;;;;4987501;28;20447;-77
2022/09/08 17:56:33;;;;;;;3.07;1.47;;;20.50;99.90;;;;;;4985377;28;20463;-77
2022/09/08 17:59:11;;;;;;;4.03;1.40;;;20.50;99.90;;;;;;4986708;28;20466;-77